Time;durP1;ratioP1;P1;durP2;ratioP2;P2;SDS_P1;SDS_P2;PMS_P1;PMS_P2;Temp;Humidity;BMP_temperature;BMP_pressure;BME280_temperature;BME280_humidity;BME280_pressure;Samples;Min_cycle;Max_cycle;Signal;HPM_P1;HPM_P2
2021/12/03 17:13:40;;;;;;;13.07;11.20;;;3.30;99.90;;;;;;6052950;23;20685;-77
2021/12/03 17:24:33;;;;;;;11.50;10.17;;;3.20;99.90;;;;;;6122417;23;20943;-77
2021/12/03 17:44:20;;;;;;;14.37;10.77;;;3.30;99.90;;;;;;6112483;23;20566;-82
2021/12/03 17:49:01;;;;;;;16.80;10.83;;;3.40;99.90;;;;;;6114293;23;20597;-81
2021/12/03 17:54:31;;;;;;;10.67;9.57;;;3.50;99.90;;;;;;6107549;23;20515;-83
2021/12/03 17:57:05;;;;;;;10.83;9.40;;;3.40;99.90;;;;;;6110453;23;20603;-84
2021/12/03 17:59:40;;;;;;;15.10;10.50;;;3.40;99.90;;;;;;6111880;23;20659;-84
2021/12/03 18:04:50;;;;;;;10.00;9.00;;;3.40;99.90;;;;;;6121442;23;20606;-84
2021/12/03 18:15:36;;;;;;;12.37;9.77;;;3.50;99.90;;;;;;6107299;23;20543;-83
2021/12/03 18:43:19;;;;;;;12.00;10.10;;;3.50;99.90;;;;;;6104786;23;20186;-79
2021/12/03 18:45:46;;;;;;;11.83;9.23;;;3.90;99.90;;;;;;6107547;23;20510;-80
2021/12/03 18:55:55;;;;;;;13.80;11.57;;;4.00;99.90;;;;;;6104747;23;20507;-85
2021/12/03 18:58:24;;;;;;;13.50;11.20;;;3.60;99.90;;;;;;6103342;23;20606;-81
2021/12/03 19:00:51;;;;;;;12.30;10.90;;;3.60;99.90;;;;;;6100024;23;20661;-83
2021/12/03 19:05:56;;;;;;;14.20;11.10;;;3.70;99.90;;;;;;6104697;23;20581;-82
2021/12/03 19:08:37;;;;;;;13.13;11.00;;;3.80;99.90;;;;;;6104111;23;20202;-84
2021/12/03 19:11:11;;;;;;;12.03;10.23;;;3.90;99.90;;;;;;6104481;23;20515;-81
2021/12/03 19:13:39;;;;;;;12.00;10.37;;;4.00;99.90;;;;;;6100206;23;20830;-81
2021/12/03 19:16:09;;;;;;;11.70;10.50;;;3.90;99.90;;;;;;6098565;23;20653;-84
2021/12/03 19:18:36;;;;;;;13.90;11.43;;;4.00;99.90;;;;;;6104007;23;20578;-84
2021/12/03 19:21:07;;;;;;;12.27;10.97;;;4.00;99.90;;;;;;6102319;23;20543;-81
2021/12/03 19:23:33;;;;;;;12.83;10.90;;;4.00;99.90;;;;;;6107559;23;20551;-83
2021/12/03 19:25:58;;;;;;;13.50;11.30;;;4.10;99.90;;;;;;6102446;23;20590;-80
2021/12/03 19:28:24;;;;;;;13.10;11.00;;;4.00;99.90;;;;;;6105492;23;20609;-80
2021/12/03 19:30:49;;;;;;;14.53;9.93;;;4.00;99.90;;;;;;6127224;23;20159;-80
2021/12/03 19:33:15;;;;;;;14.10;11.17;;;4.00;99.90;;;;;;6098895;23;20570;-81
2021/12/03 19:35:41;;;;;;;12.97;11.53;;;4.10;99.90;;;;;;6102306;23;20193;-86
2021/12/03 19:38:07;;;;;;;12.90;11.27;;;4.10;99.90;;;;;;6096142;23;20171;-79
2021/12/03 19:40:37;;;;;;;12.00;10.57;;;4.10;99.90;;;;;;6111702;23;20786;-77
2021/12/03 19:43:12;;;;;;;11.73;9.87;;;4.10;99.90;;;;;;6093924;23;20614;-80
2021/12/03 19:45:47;;;;;;;12.93;10.17;;;4.10;99.90;;;;;;6091977;23;20504;-79
2021/12/03 19:48:14;;;;;;;12.27;10.87;;;4.20;99.90;;;;;;6096320;23;20605;-80
2021/12/03 19:50:43;;;;;;;13.23;11.00;;;4.20;99.90;;;;;;6098594;23;20619;-81
2021/12/03 19:53:13;;;;;;;12.57;10.77;;;4.20;99.90;;;;;;6102978;23;20586;-82
2021/12/03 19:55:40;;;;;;;12.60;10.73;;;4.30;99.90;;;;;;6102837;23;20544;-81
2021/12/03 19:58:12;;;;;;;13.90;11.63;;;4.40;99.90;;;;;;6102427;23;20631;-83
2021/12/03 20:00:40;;;;;;;13.70;11.03;;;4.40;99.90;;;;;;6103996;23;20582;-86
2021/12/03 20:03:08;;;;;;;13.00;11.70;;;4.40;99.90;;;;;;6094783;23;20618;-77
2021/12/03 20:05:36;;;;;;;14.23;12.13;;;4.30;99.90;;;;;;6092091;23;20538;-74
2021/12/03 20:08:04;;;;;;;15.10;12.27;;;4.40;99.90;;;;;;6090147;23;21156;-76
2021/12/03 20:10:33;;;;;;;14.97;11.90;;;4.30;99.90;;;;;;6093027;23;20618;-77
2021/12/03 20:13:00;;;;;;;15.63;12.03;;;4.40;99.90;;;;;;6095177;23;20547;-78
2021/12/03 20:15:32;;;;;;;15.90;13.20;;;4.40;99.90;;;;;;6096760;23;20570;-78
2021/12/03 20:18:09;;;;;;;15.00;12.60;;;4.40;99.90;;;;;;6094427;23;20942;-78
2021/12/03 20:20:35;;;;;;;13.67;11.80;;;4.40;99.90;;;;;;6096503;23;20831;-77
2021/12/03 20:23:09;;;;;;;16.63;13.47;;;4.40;99.90;;;;;;6091801;23;20622;-77
2021/12/03 20:28:35;;;;;;;16.17;13.70;;;4.40;99.90;;;;;;6096366;23;21114;-78
2021/12/03 20:31:05;;;;;;;17.10;13.20;;;4.40;99.90;;;;;;6092422;23;20947;-79
2021/12/03 20:36:35;;;;;;;18.43;14.37;;;4.50;99.90;;;;;;6110122;23;20629;-81
2021/12/03 20:39:06;;;;;;;19.57;14.40;;;4.50;99.90;;;;;;6106769;23;20603;-82
2021/12/03 20:42:16;;;;;;;16.50;13.57;;;4.60;99.90;;;;;;6109622;23;20555;-81
2021/12/03 20:47:22;;;;;;;20.30;14.20;;;4.70;99.90;;;;;;6108282;23;20662;-79
2021/12/03 20:52:50;;;;;;;21.33;15.27;;;4.70;99.90;;;;;;6115034;23;20514;-79
2021/12/03 21:08:57;;;;;;;20.07;15.47;;;4.90;99.90;;;;;;6113828;23;20591;-86
2021/12/03 21:11:48;;;;;;;17.20;14.60;;;4.90;99.90;;;;;;6113671;23;20555;-84
2021/12/03 21:14:25;;;;;;;18.47;14.73;;;4.80;99.90;;;;;;6107336;23;20638;-83
2021/12/03 21:25:08;;;;;;;17.63;14.90;;;5.00;99.90;;;;;;6053108;23;20636;-81
2021/12/03 21:27:41;;;;;;;19.03;14.83;;;5.00;99.90;;;;;;6114055;23;20698;-85
2021/12/03 21:32:56;;;;;;;16.73;13.90;;;4.90;99.90;;;;;;6121573;23;20503;-83
2021/12/03 21:43:26;;;;;;;17.07;14.03;;;5.00;99.90;;;;;;6119209;23;20558;-83
2021/12/03 21:45:53;;;;;;;17.63;13.70;;;5.30;99.90;;;;;;6085473;23;20563;-84
2021/12/03 21:48:19;;;;;;;16.83;13.20;;;4.90;99.90;;;;;;6112925;23;20650;-83
2021/12/03 21:50:45;;;;;;;17.33;13.57;;;4.90;99.90;;;;;;6087074;23;20622;-81
2021/12/03 21:53:12;;;;;;;16.80;13.97;;;5.40;99.90;;;;;;6112118;23;20179;-86
2021/12/03 21:55:41;;;;;;;17.33;12.97;;;5.00;99.90;;;;;;6111340;23;20897;-80
2021/12/03 21:58:07;;;;;;;15.90;13.67;;;5.10;99.90;;;;;;6112304;23;20571;-83
2021/12/03 22:00:33;;;;;;;16.33;13.60;;;5.10;99.90;;;;;;6112785;23;20543;-83
2021/12/03 22:03:02;;;;;;;15.77;13.10;;;5.10;99.90;;;;;;6087361;23;20726;-83
2021/12/03 22:05:30;;;;;;;17.70;14.00;;;5.10;99.90;;;;;;6111852;23;20547;-82
2021/12/03 22:07:57;;;;;;;17.27;13.20;;;5.10;99.90;;;;;;6111069;23;20634;-84
2021/12/03 22:10:23;;;;;;;18.53;14.67;;;5.10;99.90;;;;;;6112749;23;20552;-83
2021/12/03 22:12:49;;;;;;;16.43;13.77;;;5.10;99.90;;;;;;6113884;23;20242;-81
2021/12/03 22:15:17;;;;;;;16.40;12.90;;;5.10;99.90;;;;;;6087031;23;20618;-84
2021/12/03 22:17:43;;;;;;;17.10;12.63;;;5.00;99.90;;;;;;6084552;23;20642;-82
2021/12/03 22:20:08;;;;;;;16.77;13.40;;;5.00;99.90;;;;;;6113578;23;20563;-84
2021/12/03 22:22:35;;;;;;;15.90;12.53;;;5.00;99.90;;;;;;6088921;23;20198;-85
2021/12/03 22:25:03;;;;;;;16.40;13.10;;;5.30;99.90;;;;;;6088770;23;20551;-83
2021/12/03 22:27:29;;;;;;;15.73;13.10;;;5.00;99.90;;;;;;6085725;23;20590;-82
2021/12/03 22:29:55;;;;;;;17.50;13.03;;;5.10;99.90;;;;;;6112066;23;20555;-82
2021/12/03 22:32:23;;;;;;;16.63;13.63;;;5.10;99.90;;;;;;6113302;23;20555;-83
2021/12/03 22:34:50;;;;;;;19.07;13.73;;;5.10;99.90;;;;;;6113451;23;20163;-81
2021/12/03 22:37:16;;;;;;;15.60;12.43;;;5.20;99.90;;;;;;6087457;23;20602;-84
2021/12/03 22:39:42;;;;;;;14.27;12.40;;;5.10;99.90;;;;;;6088338;23;20590;-83
2021/12/03 22:42:08;;;;;;;15.67;12.40;;;5.20;99.90;;;;;;6113357;23;20605;-85
2021/12/03 22:44:37;;;;;;;17.63;12.73;;;5.20;99.90;;;;;;6113497;23;20182;-84
2021/12/03 22:47:20;;;;;;;15.90;12.27;;;5.20;99.90;;;;;;6113355;23;20642;-82
2021/12/03 22:52:14;;;;;;;15.40;12.20;;;5.10;99.90;;;;;;6111797;23;20614;-84
2021/12/03 22:54:43;;;;;;;15.93;13.43;;;5.10;99.90;;;;;;6109661;23;20558;-84
2021/12/03 22:57:21;;;;;;;16.63;12.80;;;5.20;99.90;;;;;;6083861;23;20203;-81
2021/12/03 22:59:47;;;;;;;18.50;13.40;;;5.20;99.90;;;;;;6110989;23;20714;-82
2021/12/03 23:02:16;;;;;;;17.10;12.97;;;5.20;99.90;;;;;;6109017;23;20595;-81
2021/12/03 23:04:44;;;;;;;18.20;14.23;;;5.60;99.90;;;;;;6085114;23;20574;-82
2021/12/03 23:07:14;;;;;;;17.97;13.67;;;5.30;99.90;;;;;;6108273;23;20583;-82
2021/12/03 23:09:41;;;;;;;18.90;13.60;;;5.30;99.90;;;;;;6111574;23;20598;-81
2021/12/03 23:12:11;;;;;;;17.50;14.37;;;5.40;99.90;;;;;;6086393;23;20651;-81
2021/12/03 23:14:40;;;;;;;17.17;13.73;;;5.40;99.90;;;;;;6112577;23;20543;-82
2021/12/03 23:17:13;;;;;;;18.93;15.30;;;5.40;99.90;;;;;;6112152;23;20599;-84
2021/12/03 23:19:41;;;;;;;18.13;13.73;;;5.40;99.90;;;;;;6113386;23;20571;-82
2021/12/03 23:22:07;;;;;;;18.70;13.67;;;5.60;99.90;;;;;;6089040;23;20713;-82
2021/12/03 23:24:36;;;;;;;19.10;14.37;;;5.50;99.90;;;;;;6087796;23;20575;-84
2021/12/03 23:27:03;;;;;;;17.87;14.10;;;5.50;99.90;;;;;;6111440;23;20302;-84
2021/12/03 23:29:29;;;;;;;21.30;13.77;;;5.40;99.90;;;;;;6111177;23;21155;-85
2021/12/03 23:31:57;;;;;;;18.40;14.17;;;5.50;99.90;;;;;;6112099;23;20559;-84
2021/12/03 23:34:24;;;;;;;18.07;14.00;;;5.50;99.90;;;;;;6088258;23;20167;-85
2021/12/03 23:36:51;;;;;;;16.17;12.50;;;5.50;99.90;;;;;;6112380;23;20602;-82
2021/12/03 23:39:19;;;;;;;14.60;12.50;;;5.50;99.90;;;;;;6087750;23;20669;-84
2021/12/03 23:41:50;;;;;;;19.27;14.87;;;5.50;99.90;;;;;;6110642;23;20649;-83
2021/12/03 23:44:16;;;;;;;15.70;12.70;;;5.50;99.90;;;;;;6085687;23;20670;-82
2021/12/03 23:46:41;;;;;;;14.60;11.80;;;5.50;99.90;;;;;;6110222;23;21129;-81
2021/12/03 23:49:07;;;;;;;16.60;13.23;;;5.60;99.90;;;;;;6086764;23;20183;-82
2021/12/03 23:51:34;;;;;;;16.03;12.37;;;5.60;99.90;;;;;;6087494;23;20159;-80
2021/12/03 23:54:02;;;;;;;15.87;13.07;;;5.60;99.90;;;;;;6114030;23;20151;-84
2021/12/03 23:56:30;;;;;;;16.30;12.90;;;5.60;99.90;;;;;;6086538;23;20571;-83
2021/12/03 23:58:55;;;;;;;15.97;12.83;;;5.60;99.90;;;;;;6112446;23;20579;-84
